Time,TemperatureF,DewpointF,PressureIn,WindDirection,WindDirectionDegrees,WindSpeedMPH,WindSpeedGustMPH,Humidity,HourlyPrecipIn,Conditions,Clouds,dailyrainin,SoftwareType,DateUTC
2013-01-17 00:00:00,74.0,-99.9,29.91,South,190,14.0,-999.0,-999,-99.99,,,-99.99,,2013-01-17 09:00:00,
2013-01-17 00:22:00,74.0,-99.9,29.91,South,190,14.0,-999.0,-999,-99.99,,,-99.99,,2013-01-17 09:22:00,
2013-01-17 00:33:00,74.0,-99.9,29.91,South,190,14.0,-999.0,-999,-99.99,,,-99.99,,2013-01-17 09:33:00,
2013-01-17 00:43:00,74.0,-99.9,29.91,South,190,14.0,-999.0,-999,-99.99,,,-99.99,,2013-01-17 09:43:00,
2013-01-17 00:53:00,74.0,-99.9,29.91,South,190,14.0,-999.0,-999,-99.99,,,-99.99,,2013-01-17 09:53:00,
2013-01-17 01:00:00,74.0,-99.9,29.91,SW,220,14.0,-999.0,-999,-99.99,,,-99.99,,2013-01-17 10:00:00,
2013-01-17 01:22:00,74.0,-99.9,29.91,SW,220,14.0,-999.0,-999,-99.99,,,-99.99,,2013-01-17 10:22:00,
2013-01-17 01:33:00,74.0,-99.9,29.91,SW,220,14.0,-999.0,-999,-99.99,,,-99.99,,2013-01-17 10:33:00,
2013-01-17 01:43:00,74.0,-99.9,29.91,SW,220,14.0,-999.0,-999,-99.99,,,-99.99,,2013-01-17 10:43:00,
2013-01-17 01:53:00,74.0,-99.9,29.91,SW,220,14.0,-999.0,-999,-99.99,,,-99.99,,2013-01-17 10:53:00,
2013-01-17 02:00:00,75.0,-99.9,29.94,SSW,200,11.0,-999.0,-999,-99.99,,,-99.99,,2013-01-17 11:00:00,
2013-01-17 02:23:00,75.0,-99.9,29.94,SSW,200,11.0,-999.0,-999,-99.99,,,-99.99,,2013-01-17 11:23:00,
2013-01-17 02:33:00,75.0,-99.9,29.94,SSW,200,11.0,-999.0,-999,-99.99,,,-99.99,,2013-01-17 11:33:00,
2013-01-17 02:43:00,75.0,-99.9,29.94,SSW,200,11.0,-999.0,-999,-99.99,,,-99.99,,2013-01-17 11:43:00,
2013-01-17 02:53:00,75.0,-99.9,29.94,SSW,200,11.0,-999.0,-999,-99.99,,,-99.99,,2013-01-17 11:53:00,
2013-01-17 03:00:00,75.0,-99.9,29.96,South,190,8.0,-999.0,-999,-99.99,,,-99.99,,2013-01-17 12:00:00,
2013-01-17 03:23:00,75.0,-99.9,29.96,South,190,8.0,-999.0,-999,-99.99,,,-99.99,,2013-01-17 12:23:00,
2013-01-17 03:33:00,75.0,-99.9,29.96,South,190,8.0,-999.0,-999,-99.99,,,-99.99,,2013-01-17 12:33:00,
2013-01-17 03:43:00,75.0,-99.9,29.96,South,190,8.0,-999.0,-999,-99.99,,,-99.99,,2013-01-17 12:43:00,
2013-01-17 03:53:00,75.0,-99.9,29.96,South,190,8.0,-999.0,-999,-99.99,,,-99.99,,2013-01-17 12:53:00,
2013-01-17 04:00:00,74.0,-99.9,29.95,SW,220,6.0,-999.0,-999,-99.99,,,-99.99,,2013-01-17 13:00:00,
2013-01-17 04:23:00,74.0,-99.9,29.95,SW,220,6.0,-999.0,-999,-99.99,,,-99.99,,2013-01-17 13:23:00,
2013-01-17 04:33:00,74.0,-99.9,29.95,SW,220,6.0,-999.0,-999,-99.99,,,-99.99,,2013-01-17 13:33:00,
2013-01-17 04:43:00,74.0,-99.9,29.95,SW,220,6.0,-999.0,-999,-99.99,,,-99.99,,2013-01-17 13:43:00,
2013-01-17 04:53:00,74.0,-99.9,29.95,SW,220,6.0,-999.0,-999,-99.99,,,-99.99,,2013-01-17 13:53:00,
2013-01-17 05:00:00,75.0,-99.9,29.93,SSW,200,11.0,-999.0,-999,-99.99,,,-99.99,,2013-01-17 14:00:00,
2013-01-17 05:33:00,75.0,-99.9,29.93,SSW,200,11.0,-999.0,-999,-99.99,,,-99.99,,2013-01-17 14:33:00,
2013-01-17 05:43:00,75.0,-99.9,29.93,SSW,200,11.0,-999.0,-999,-99.99,,,-99.99,,2013-01-17 14:43:00,
2013-01-17 05:53:00,75.0,-99.9,29.93,SSW,200,11.0,-999.0,-999,-99.99,,,-99.99,,2013-01-17 14:53:00,
2013-01-17 06:00:00,75.0,-99.9,29.92,South,190,7.0,-999.0,-999,-99.99,,,-99.99,,2013-01-17 15:00:00,
2013-01-17 06:23:00,75.0,-99.9,29.92,South,190,7.0,-999.0,-999,-99.99,,,-99.99,,2013-01-17 15:23:00,
2013-01-17 06:33:00,75.0,-99.9,29.92,South,190,7.0,-999.0,-999,-99.99,,,-99.99,,2013-01-17 15:33:00,
2013-01-17 06:44:00,75.0,-99.9,29.92,South,190,7.0,-999.0,-999,-99.99,,,-99.99,,2013-01-17 15:44:00,
2013-01-17 06:53:00,75.0,-99.9,29.92,South,190,7.0,-999.0,-999,-99.99,,,-99.99,,2013-01-17 15:53:00,
2013-01-17 07:00:00,75.0,-99.9,29.92,South,180,6.0,-999.0,-999,-99.99,,,-99.99,,2013-01-17 16:00:00,
2013-01-17 07:23:00,75.0,-99.9,29.92,South,180,6.0,-999.0,-999,-99.99,,,-99.99,,2013-01-17 16:23:00,
2013-01-17 07:34:00,75.0,-99.9,29.92,South,180,6.0,-999.0,-999,-99.99,,,-99.99,,2013-01-17 16:34:00,
2013-01-17 07:44:00,75.0,-99.9,29.92,South,180,6.0,-999.0,-999,-99.99,,,-99.99,,2013-01-17 16:44:00,
2013-01-17 07:53:00,75.0,-99.9,29.92,South,180,6.0,-999.0,-999,-99.99,,,-99.99,,2013-01-17 16:53:00,
2013-01-17 08:00:00,75.0,-99.9,29.91,SSE,150,8.0,-999.0,-999,-99.99,,,-99.99,,2013-01-17 17:00:00,
2013-01-17 08:23:00,75.0,-99.9,29.91,SSE,150,8.0,-999.0,-999,-99.99,,,-99.99,,2013-01-17 17:23:00,
2013-01-17 08:33:00,75.0,-99.9,29.91,SSE,150,8.0,-999.0,-999,-99.99,,,-99.99,,2013-01-17 17:33:00,
2013-01-17 08:43:00,75.0,-99.9,29.91,SSE,150,8.0,-999.0,-999,-99.99,,,-99.99,,2013-01-17 17:43:00,
2013-01-17 08:54:00,75.0,-99.9,29.91,SSE,150,8.0,-999.0,-999,-99.99,,,-99.99,,2013-01-17 17:54:00,
2013-01-17 09:00:00,79.0,70.0,29.94,North,10,9.0,-999.0,75,-99.99,,,-99.99,,2013-01-17 18:00:00,
2013-01-17 09:23:00,76.0,-99.9,29.93,South,170,9.0,-999.0,-999,-99.99,,,-99.99,,2013-01-17 18:23:00,
2013-01-17 09:32:00,79.0,70.0,29.94,North,10,9.0,-999.0,75,-99.99,,,-99.99,,2013-01-17 18:32:00,
2013-01-17 09:42:00,79.0,70.0,29.94,North,10,9.0,-999.0,75,-99.99,,,-99.99,,2013-01-17 18:42:00,
2013-01-17 09:52:00,79.0,70.0,29.94,North,10,9.0,-999.0,75,-99.99,,,-99.99,,2013-01-17 18:52:00,
2013-01-17 10:00:00,76.0,-99.9,29.94,SE,140,7.0,-999.0,-999,-99.99,,,-99.99,,2013-01-17 19:00:00,
2013-01-17 10:23:00,76.0,-99.9,29.94,SE,140,7.0,-999.0,-999,-99.99,,,-99.99,,2013-01-17 19:23:00,
2013-01-17 10:33:00,76.0,-99.9,29.94,SE,140,7.0,-999.0,-999,-99.99,,,-99.99,,2013-01-17 19:33:00,
2013-01-17 10:43:00,76.0,-99.9,29.94,SE,140,7.0,-999.0,-999,-99.99,,,-99.99,,2013-01-17 19:43:00,
2013-01-17 10:54:00,76.0,-99.9,29.94,SE,140,7.0,-999.0,-999,-99.99,,,-99.99,,2013-01-17 19:54:00,
2013-01-17 11:00:00,75.0,-99.9,29.97,South,170,15.0,-999.0,-999,-99.99,,,-99.99,,2013-01-17 20:00:00,
2013-01-17 11:23:00,75.0,-99.9,29.97,South,170,15.0,-999.0,-999,-99.99,,,-99.99,,2013-01-17 20:23:00,
2013-01-17 11:34:00,75.0,-99.9,29.97,South,170,15.0,-999.0,-999,-99.99,,,-99.99,,2013-01-17 20:34:00,
2013-01-17 11:44:00,75.0,-99.9,29.97,South,170,15.0,-999.0,-999,-99.99,,,-99.99,,2013-01-17 20:44:00,
2013-01-17 11:54:00,75.0,-99.9,29.97,South,170,15.0,-999.0,-999,-99.99,,,-99.99,,2013-01-17 20:54:00,
2013-01-17 12:00:00,73.0,-99.9,29.99,SSE,160,5.0,-999.0,-999,-99.99,,,-99.99,,2013-01-17 21:00:00,
2013-01-17 12:24:00,73.0,-99.9,29.99,SSE,160,5.0,-999.0,-999,-99.99,,,-99.99,,2013-01-17 21:24:00,
2013-01-17 12:34:00,73.0,-99.9,29.99,SSE,160,5.0,-999.0,-999,-99.99,,,-99.99,,2013-01-17 21:34:00,
2013-01-17 12:43:00,73.0,-99.9,29.99,SSE,160,5.0,-999.0,-999,-99.99,,,-99.99,,2013-01-17 21:43:00,
2013-01-17 12:54:00,73.0,-99.9,29.99,SSE,160,5.0,-999.0,-999,-99.99,,,-99.99,,2013-01-17 21:54:00,
2013-01-17 13:00:00,76.0,-99.9,30.02,SSE,150,18.0,-999.0,-999,-99.99,,,-99.99,,2013-01-17 22:00:00,
2013-01-17 13:23:00,76.0,-99.9,30.02,SSE,150,18.0,-999.0,-999,-99.99,,,-99.99,,2013-01-17 22:23:00,
2013-01-17 13:33:00,76.0,-99.9,30.02,SSE,150,18.0,-999.0,-999,-99.99,,,-99.99,,2013-01-17 22:33:00,
2013-01-17 13:43:00,76.0,-99.9,30.02,SSE,150,18.0,-999.0,-999,-99.99,,,-99.99,,2013-01-17 22:43:00,
2013-01-17 13:53:00,76.0,-99.9,30.02,SSE,150,18.0,-999.0,-999,-99.99,,,-99.99,,2013-01-17 22:53:00,
2013-01-17 14:00:00,74.0,-99.9,30.01,SE,130,14.0,-999.0,-999,-99.99,,,-99.99,,2013-01-17 23:00:00,
2013-01-17 14:23:00,74.0,-99.9,30.01,SE,130,14.0,-999.0,-999,-99.99,,,-99.99,,2013-01-17 23:23:00,
2013-01-17 14:33:00,74.0,-99.9,30.01,SE,130,14.0,-999.0,-999,-99.99,,,-99.99,,2013-01-17 23:33:00,
2013-01-17 14:43:00,74.0,-99.9,30.01,SE,130,14.0,-999.0,-999,-99.99,,,-99.99,,2013-01-17 23:43:00,
2013-01-17 14:53:00,74.0,-99.9,30.01,SE,130,14.0,-999.0,-999,-99.99,,,-99.99,,2013-01-17 23:53:00,
2013-01-17 15:00:00,73.0,73.0,30.04,SE,140,13.0,-999.0,100,-99.99,,,-99.99,,2013-01-18 00:00:00,
2013-01-17 15:22:00,73.0,73.0,30.04,SE,140,13.0,-999.0,100,-99.99,,,-99.99,,2013-01-18 00:22:00,
2013-01-17 15:32:00,73.0,73.0,30.04,SE,140,13.0,-999.0,100,-99.99,,,-99.99,,2013-01-18 00:32:00,
2013-01-17 15:42:00,73.0,73.0,30.04,SE,140,13.0,-999.0,100,-99.99,,,-99.99,,2013-01-18 00:42:00,
2013-01-17 15:52:00,73.0,73.0,30.04,SE,140,13.0,-999.0,100,-99.99,,,-99.99,,2013-01-18 00:52:00,
2013-01-17 16:00:00,75.0,-99.9,30.03,ESE,120,10.0,-999.0,-999,-99.99,,,-99.99,,2013-01-18 01:00:00,
2013-01-17 16:23:00,75.0,-99.9,30.03,ESE,120,10.0,-999.0,-999,-99.99,,,-99.99,,2013-01-18 01:23:00,
2013-01-17 16:33:00,75.0,-99.9,30.03,ESE,120,10.0,-999.0,-999,-99.99,,,-99.99,,2013-01-18 01:33:00,
2013-01-17 16:43:00,75.0,-99.9,30.03,ESE,120,10.0,-999.0,-999,-99.99,,,-99.99,,2013-01-18 01:43:00,
2013-01-17 16:53:00,75.0,-99.9,30.03,ESE,120,10.0,-999.0,-999,-99.99,,,-99.99,,2013-01-18 01:53:00,
2013-01-17 17:00:00,75.0,-99.9,30.05,East,100,8.0,-999.0,-999,-99.99,,,-99.99,,2013-01-18 02:00:00,
2013-01-17 17:23:00,75.0,-99.9,30.05,East,100,8.0,-999.0,-999,-99.99,,,-99.99,,2013-01-18 02:23:00,
2013-01-17 17:33:00,75.0,-99.9,30.05,East,100,8.0,-999.0,-999,-99.99,,,-99.99,,2013-01-18 02:33:00,
2013-01-17 17:43:00,75.0,-99.9,30.05,East,100,8.0,-999.0,-999,-99.99,,,-99.99,,2013-01-18 02:43:00,
2013-01-17 17:53:00,75.0,-99.9,30.05,East,100,8.0,-999.0,-999,-99.99,,,-99.99,,2013-01-18 02:53:00,
2013-01-17 18:00:00,76.0,-99.9,30.06,WNW,300,1.0,-999.0,-999,-99.99,,,-99.99,,2013-01-18 03:00:00,
2013-01-17 18:23:00,76.0,-99.9,30.06,WNW,300,1.0,-999.0,-999,-99.99,,,-99.99,,2013-01-18 03:23:00,
2013-01-17 18:33:00,76.0,-99.9,30.06,WNW,300,1.0,-999.0,-999,-99.99,,,-99.99,,2013-01-18 03:33:00,
2013-01-17 18:43:00,76.0,-99.9,30.06,WNW,300,1.0,-999.0,-999,-99.99,,,-99.99,,2013-01-18 03:43:00,
2013-01-17 18:53:00,76.0,-99.9,30.06,WNW,300,1.0,-999.0,-999,-99.99,,,-99.99,,2013-01-18 03:53:00,
2013-01-17 19:00:00,75.0,-99.9,30.04,East,100,14.0,-999.0,-999,-99.99,,,-99.99,,2013-01-18 04:00:00,
2013-01-17 19:22:00,75.0,-99.9,30.04,East,100,14.0,-999.0,-999,-99.99,,,-99.99,,2013-01-18 04:22:00,
2013-01-17 19:33:00,75.0,-99.9,30.04,East,100,14.0,-999.0,-999,-99.99,,,-99.99,,2013-01-18 04:33:00,
2013-01-17 19:43:00,75.0,-99.9,30.04,East,100,14.0,-999.0,-999,-99.99,,,-99.99,,2013-01-18 04:43:00,
2013-01-17 19:53:00,75.0,-99.9,30.04,East,100,14.0,-999.0,-999,-99.99,,,-99.99,,2013-01-18 04:53:00,
2013-01-17 20:00:00,75.0,-99.9,30.01,East,100,13.0,-999.0,-999,-99.99,,,-99.99,,2013-01-18 05:00:00,
2013-01-17 20:22:00,75.0,-99.9,30.01,East,100,13.0,-999.0,-999,-99.99,,,-99.99,,2013-01-18 05:22:00,
2013-01-17 20:33:00,75.0,-99.9,30.01,East,100,13.0,-999.0,-999,-99.99,,,-99.99,,2013-01-18 05:33:00,
2013-01-17 20:43:00,75.0,-99.9,30.01,East,100,13.0,-999.0,-999,-99.99,,,-99.99,,2013-01-18 05:43:00,
2013-01-17 20:53:00,75.0,-99.9,30.01,East,100,13.0,-999.0,-999,-99.99,,,-99.99,,2013-01-18 05:53:00,
2013-01-17 21:00:00,75.0,72.0,30.04,ENE,70,13.0,-999.0,88,-99.99,,,-99.99,,2013-01-18 06:00:00,
2013-01-17 21:23:00,75.0,-99.9,30.03,ENE,70,11.0,-999.0,-999,-99.99,,,-99.99,,2013-01-18 06:23:00,
2013-01-17 21:32:00,75.0,72.0,30.04,ENE,70,13.0,-999.0,88,-99.99,,,-99.99,,2013-01-18 06:32:00,
2013-01-17 21:42:00,75.0,72.0,30.04,ENE,70,13.0,-999.0,88,-99.99,,,-99.99,,2013-01-18 06:42:00,
2013-01-17 21:52:00,75.0,72.0,30.04,ENE,70,13.0,-999.0,88,-99.99,,,-99.99,,2013-01-18 06:52:00,
2013-01-17 22:00:00,75.0,-99.9,30.04,NE,40,15.0,-999.0,-999,-99.99,,,-99.99,,2013-01-18 07:00:00,
2013-01-17 22:22:00,75.0,-99.9,30.04,NE,40,15.0,-999.0,-999,-99.99,,,-99.99,,2013-01-18 07:22:00,
2013-01-17 22:33:00,75.0,-99.9,30.04,NE,40,15.0,-999.0,-999,-99.99,,,-99.99,,2013-01-18 07:33:00,
2013-01-17 22:43:00,75.0,-99.9,30.04,NE,40,15.0,-999.0,-999,-99.99,,,-99.99,,2013-01-18 07:43:00,
2013-01-17 22:52:00,75.0,-99.9,30.04,NE,40,15.0,-999.0,-999,-99.99,,,-99.99,,2013-01-18 07:52:00,
2013-01-17 23:00:00,75.0,-99.9,30.04,NE,50,18.0,-999.0,-999,-99.99,,,-99.99,,2013-01-18 08:00:00,
2013-01-17 23:22:00,75.0,-99.9,30.04,NE,50,18.0,-999.0,-999,-99.99,,,-99.99,,2013-01-18 08:22:00,
2013-01-17 23:33:00,75.0,-99.9,30.04,NE,50,18.0,-999.0,-999,-99.99,,,-99.99,,2013-01-18 08:33:00,
2013-01-17 23:43:00,75.0,-99.9,30.04,NE,50,18.0,-999.0,-999,-99.99,,,-99.99,,2013-01-18 08:43:00,
2013-01-17 23:53:00,75.0,-99.9,30.04,NE,50,18.0,-999.0,-999,-99.99,,,-99.99,,2013-01-18 08:53:00,